Time;durP1;ratioP1;P1;durP2;ratioP2;P2;SDS_P1;SDS_P2;PMS_P1;PMS_P2;Temp;Humidity;BMP_temperature;BMP_pressure;BME280_temperature;BME280_humidity;BME280_pressure;Samples;Min_cycle;Max_cycle;Signal;HPM_P1;HPM_P2
2021/06/23 00:00:34;;;;;;;7.90;6.73;;;17.70;99.90;;;;;;4997005;28;20211;-61
2021/06/23 00:03:00;;;;;;;9.80;7.10;;;17.70;99.90;;;;;;5014896;28;20445;-61
2021/06/23 00:05:26;;;;;;;9.47;7.73;;;17.70;99.90;;;;;;5018192;28;20968;-61
2021/06/23 00:07:52;;;;;;;14.00;8.00;;;17.70;99.90;;;;;;5006904;28;20483;-62
2021/06/23 00:10:18;;;;;;;9.50;7.60;;;17.70;99.90;;;;;;5020031;28;20450;-61
2021/06/23 00:12:44;;;;;;;9.03;7.10;;;17.60;99.90;;;;;;5013542;28;20172;-62
2021/06/23 00:15:15;;;;;;;11.17;7.60;;;17.70;99.90;;;;;;5026651;28;20810;-61
2021/06/23 00:17:41;;;;;;;11.00;8.37;;;17.60;99.90;;;;;;5028424;28;20794;-61
2021/06/23 00:20:07;;;;;;;11.90;8.03;;;17.60;99.90;;;;;;5012819;28;20454;-62
2021/06/23 00:22:33;;;;;;;10.67;8.20;;;17.60;99.90;;;;;;5031525;28;20414;-61
2021/06/23 00:24:59;;;;;;;10.83;8.63;;;17.60;99.90;;;;;;5023609;28;20495;-62
2021/06/23 00:27:25;;;;;;;10.50;7.30;;;17.60;99.90;;;;;;5021333;28;20211;-61
2021/06/23 00:29:51;;;;;;;9.93;8.40;;;17.60;99.90;;;;;;5028730;28;20184;-61
2021/06/23 00:32:20;;;;;;;10.90;8.20;;;17.60;99.90;;;;;;5024437;28;20267;-61
2021/06/23 00:34:46;;;;;;;9.83;8.33;;;17.60;99.90;;;;;;5025875;28;20434;-60
2021/06/23 00:37:12;;;;;;;9.80;7.27;;;17.60;99.90;;;;;;5022398;28;21189;-61
2021/06/23 00:39:38;;;;;;;10.60;7.87;;;17.60;99.90;;;;;;5029641;28;20524;-61
2021/06/23 00:42:07;;;;;;;11.40;7.93;;;17.60;99.90;;;;;;5024842;28;20226;-61
2021/06/23 00:44:33;;;;;;;11.50;7.77;;;17.60;99.90;;;;;;5026941;28;20449;-61
2021/06/23 00:46:58;;;;;;;11.73;8.50;;;17.60;99.90;;;;;;5027684;28;20831;-61
2021/06/23 00:49:30;;;;;;;10.77;8.73;;;17.60;99.90;;;;;;5028636;28;20266;-60
2021/06/23 00:51:56;;;;;;;11.40;8.00;;;17.60;99.90;;;;;;5028022;28;20227;-60
2021/06/23 00:54:22;;;;;;;9.70;8.33;;;17.60;99.90;;;;;;5029824;28;20932;-60
2021/06/23 00:56:48;;;;;;;12.23;8.20;;;17.60;99.90;;;;;;5010032;28;20439;-60
2021/06/23 00:59:13;;;;;;;11.03;8.40;;;17.60;99.90;;;;;;5027176;28;20269;-59
2021/06/23 01:01:42;;;;;;;14.53;7.77;;;17.60;99.90;;;;;;5020052;28;20208;-60
2021/06/23 01:04:08;;;;;;;10.70;7.80;;;17.50;99.90;;;;;;5023002;28;20180;-60
2021/06/23 01:06:34;;;;;;;11.00;8.30;;;17.50;99.90;;;;;;5022619;28;20459;-60
2021/06/23 01:09:01;;;;;;;9.43;7.90;;;17.50;99.90;;;;;;5009053;28;20473;-61
2021/06/23 01:11:28;;;;;;;13.83;8.40;;;17.50;99.90;;;;;;5023887;28;20541;-62
2021/06/23 01:13:57;;;;;;;18.80;8.67;;;17.50;99.90;;;;;;5028185;28;20482;-60
2021/06/23 01:16:25;;;;;;;9.53;7.93;;;17.50;99.90;;;;;;5025586;28;20439;-60
2021/06/23 01:18:52;;;;;;;10.20;8.27;;;17.50;99.90;;;;;;5026189;28;20524;-62
2021/06/23 01:21:17;;;;;;;14.10;8.23;;;17.50;99.90;;;;;;5022467;28;20517;-60
2021/06/23 01:23:43;;;;;;;13.70;9.70;;;17.50;99.90;;;;;;5015449;28;21168;-61
2021/06/23 01:26:09;;;;;;;11.13;8.13;;;17.50;99.90;;;;;;5021936;28;20218;-61
2021/06/23 01:28:34;;;;;;;13.97;8.53;;;17.50;99.90;;;;;;5023998;28;20184;-61
2021/06/23 01:31:00;;;;;;;10.73;8.87;;;17.50;99.90;;;;;;5029574;28;20748;-61
2021/06/23 01:33:27;;;;;;;10.23;8.30;;;17.50;99.90;;;;;;5024756;28;20634;-61
2021/06/23 01:35:53;;;;;;;11.60;8.73;;;17.50;99.90;;;;;;5023318;28;20185;-60
2021/06/23 01:38:19;;;;;;;12.67;8.80;;;17.40;99.90;;;;;;5022226;28;20918;-61
2021/06/23 01:40:45;;;;;;;8.83;7.97;;;17.40;99.90;;;;;;5007698;28;20642;-61
2021/06/23 01:43:12;;;;;;;13.03;8.40;;;17.40;99.90;;;;;;5022933;28;20438;-60
2021/06/23 01:45:38;;;;;;;8.70;7.80;;;17.30;99.90;;;;;;5016885;28;20292;-61
2021/06/23 01:48:04;;;;;;;11.50;8.63;;;17.30;99.90;;;;;;5015231;28;21008;-60
2021/06/23 01:50:30;;;;;;;9.37;8.33;;;17.30;99.90;;;;;;5026953;28;20458;-61
2021/06/23 01:52:56;;;;;;;10.73;8.80;;;17.30;99.90;;;;;;5026495;28;20479;-61
2021/06/23 01:55:27;;;;;;;10.77;8.23;;;17.30;99.90;;;;;;5024375;28;20271;-61
2021/06/23 01:58:07;;;;;;;10.27;8.30;;;17.30;99.90;;;;;;5019416;28;20180;-62
2021/06/23 02:00:54;;;;;;;12.17;9.50;;;17.20;99.90;;;;;;5023077;28;20527;-61
2021/06/23 02:03:23;;;;;;;11.90;9.50;;;17.20;99.90;;;;;;4964927;28;20522;-61
2021/06/23 02:05:51;;;;;;;12.33;9.67;;;17.20;99.90;;;;;;5025616;28;20451;-61
2021/06/23 02:08:39;;;;;;;11.30;9.00;;;17.30;99.90;;;;;;5010587;28;20795;-61
2021/06/23 02:11:31;;;;;;;11.40;8.73;;;17.30;99.90;;;;;;5018639;28;20445;-61
2021/06/23 02:14:34;;;;;;;12.70;9.30;;;17.30;99.90;;;;;;5022957;28;20485;-61
2021/06/23 02:17:03;;;;;;;13.20;10.30;;;17.30;99.90;;;;;;5009900;28;20449;-62
2021/06/23 02:19:30;;;;;;;11.07;9.73;;;17.30;99.90;;;;;;5019168;28;20435;-61
2021/06/23 02:21:56;;;;;;;12.30;9.60;;;17.30;99.90;;;;;;5024856;28;21008;-61
2021/06/23 02:24:22;;;;;;;9.30;8.00;;;17.30;99.90;;;;;;5027166;28;20492;-61
2021/06/23 02:26:48;;;;;;;9.50;8.50;;;17.30;99.90;;;;;;5024908;28;20992;-61
2021/06/23 02:29:14;;;;;;;10.37;9.27;;;17.20;99.90;;;;;;5021129;28;20473;-60
2021/06/23 02:31:40;;;;;;;8.73;7.80;;;17.20;99.90;;;;;;5024660;28;20287;-61
2021/06/23 02:34:13;;;;;;;14.40;8.33;;;17.20;99.90;;;;;;5018921;28;20659;-61
2021/06/23 02:36:39;;;;;;;11.33;8.47;;;17.20;99.90;;;;;;5025239;28;20505;-61
2021/06/23 02:39:07;;;;;;;11.43;8.90;;;17.20;99.90;;;;;;5004424;28;20526;-62
2021/06/23 02:41:34;;;;;;;10.40;7.80;;;17.20;99.90;;;;;;5015981;28;20471;-61
2021/06/23 02:46:37;;;;;;;15.33;10.53;;;17.20;99.90;;;;;;5024209;28;21029;-60
2021/06/23 02:49:03;;;;;;;12.00;8.77;;;17.20;99.90;;;;;;5024668;28;20703;-61
2021/06/23 02:51:35;;;;;;;10.97;8.30;;;17.10;99.90;;;;;;5024313;28;20247;-59
2021/06/23 02:54:01;;;;;;;11.50;9.03;;;17.10;99.90;;;;;;5018081;28;20488;-59
2021/06/23 02:56:27;;;;;;;11.60;8.67;;;17.10;99.90;;;;;;5023327;28;20438;-57
2021/06/23 02:58:55;;;;;;;12.17;9.87;;;17.10;99.90;;;;;;5027468;28;20425;-57
2021/06/23 03:01:21;;;;;;;15.70;10.97;;;17.10;99.90;;;;;;5023272;28;20230;-58
2021/06/23 03:03:48;;;;;;;17.00;11.00;;;17.00;99.90;;;;;;5001173;28;20427;-57
2021/06/23 03:06:13;;;;;;;14.23;10.77;;;17.00;99.90;;;;;;5029231;28;20289;-57
2021/06/23 03:08:39;;;;;;;16.13;11.60;;;17.00;99.90;;;;;;5025272;28;20525;-57
2021/06/23 03:11:05;;;;;;;16.13;11.30;;;17.00;99.90;;;;;;5022757;28;20176;-59
2021/06/23 03:13:31;;;;;;;15.33;10.90;;;17.00;99.90;;;;;;5027464;28;20692;-56
2021/06/23 03:15:57;;;;;;;15.70;11.10;;;16.90;99.90;;;;;;5016386;28;20458;-57
2021/06/23 03:18:28;;;;;;;13.33;9.60;;;16.90;99.90;;;;;;5022697;28;20430;-56
2021/06/23 03:20:54;;;;;;;12.80;10.33;;;16.80;99.90;;;;;;5023745;28;20186;-57
2021/06/23 03:23:19;;;;;;;14.77;9.53;;;16.80;99.90;;;;;;5013550;28;20517;-59
2021/06/23 03:25:45;;;;;;;13.80;10.30;;;16.80;99.90;;;;;;5028242;28;20210;-57
2021/06/23 03:28:11;;;;;;;11.83;9.50;;;16.80;99.90;;;;;;5027923;28;20207;-58
2021/06/23 03:30:38;;;;;;;13.63;10.33;;;16.80;99.90;;;;;;5023604;28;20668;-57
2021/06/23 03:33:04;;;;;;;15.20;11.10;;;16.80;99.90;;;;;;5024543;28;20524;-59
2021/06/23 03:35:30;;;;;;;14.00;11.00;;;16.70;99.90;;;;;;5021875;28;20470;-57
2021/06/23 03:37:55;;;;;;;14.70;11.80;;;16.70;99.90;;;;;;5031762;28;20961;-58
2021/06/23 03:40:22;;;;;;;15.60;11.77;;;16.70;99.90;;;;;;5030742;28;20660;-56
2021/06/23 03:42:49;;;;;;;15.50;12.03;;;16.80;99.90;;;;;;5035141;28;20634;-58
2021/06/23 03:45:15;;;;;;;14.33;11.60;;;16.80;99.90;;;;;;5037101;28;20488;-57
2021/06/23 03:47:42;;;;;;;14.73;11.63;;;16.80;99.90;;;;;;5022473;28;20430;-57
2021/06/23 03:50:09;;;;;;;13.20;10.57;;;16.80;99.90;;;;;;5020441;28;20850;-55
2021/06/23 03:52:35;;;;;;;17.87;10.93;;;16.80;99.90;;;;;;5045894;28;20719;-56
2021/06/23 03:55:01;;;;;;;15.40;12.30;;;16.80;99.90;;;;;;5032095;28;20462;-57
2021/06/23 03:57:28;;;;;;;17.03;12.37;;;16.80;99.90;;;;;;5026784;28;20439;-63
2021/06/23 03:59:53;;;;;;;18.60;12.43;;;16.80;99.90;;;;;;5024103;28;20503;-61
2021/06/23 04:02:19;;;;;;;16.90;12.53;;;16.80;99.90;;;;;;5018189;28;20436;-60
2021/06/23 04:04:46;;;;;;;14.83;11.87;;;16.90;99.90;;;;;;5017584;28;20210;-60
2021/06/23 04:07:12;;;;;;;18.70;12.87;;;16.90;99.90;;;;;;5020792;28;20860;-61
2021/06/23 04:09:38;;;;;;;15.23;12.20;;;16.90;99.90;;;;;;5018041;28;20434;-62
2021/06/23 04:12:05;;;;;;;17.03;12.23;;;16.90;99.90;;;;;;5014189;28;20435;-58
2021/06/23 04:14:30;;;;;;;18.40;11.70;;;16.80;99.90;;;;;;5012062;28;20203;-52
2021/06/23 04:16:57;;;;;;;13.53;10.10;;;16.90;99.90;;;;;;5016916;28;20438;-59
2021/06/23 04:19:22;;;;;;;12.83;10.80;;;16.90;99.90;;;;;;5012583;28;20180;-57
2021/06/23 04:21:49;;;;;;;22.90;11.07;;;16.90;99.90;;;;;;5022801;28;20437;-61
2021/06/23 04:24:14;;;;;;;16.30;12.17;;;16.90;99.90;;;;;;5022374;28;20217;-60
2021/06/23 04:26:40;;;;;;;17.60;10.90;;;16.90;99.90;;;;;;5023269;28;21014;-59
2021/06/23 04:29:06;;;;;;;16.10;12.40;;;16.90;99.90;;;;;;5006249;28;20176;-62
2021/06/23 04:31:32;;;;;;;15.63;11.80;;;16.90;99.90;;;;;;5022261;28;20200;-61
2021/06/23 04:33:58;;;;;;;17.33;11.30;;;16.90;99.90;;;;;;5027584;28;20699;-60
2021/06/23 04:36:23;;;;;;;12.83;10.50;;;16.90;99.90;;;;;;5022423;28;20184;-62
2021/06/23 04:38:49;;;;;;;13.40;11.23;;;16.90;99.90;;;;;;5025398;28;20180;-57
2021/06/23 04:41:15;;;;;;;15.97;12.37;;;17.00;99.90;;;;;;5024936;28;20180;-60
2021/06/23 04:43:44;;;;;;;15.50;11.00;;;17.00;99.90;;;;;;5028078;28;20184;-63
2021/06/23 04:46:09;;;;;;;12.17;10.50;;;17.00;99.90;;;;;;5018781;28;20937;-61
2021/06/23 04:48:35;;;;;;;15.00;10.73;;;17.00;99.90;;;;;;5008383;28;20436;-58
2021/06/23 04:51:01;;;;;;;14.50;10.27;;;17.00;99.90;;;;;;5015753;28;20788;-53
2021/06/23 04:53:27;;;;;;;13.03;9.60;;;17.00;99.90;;;;;;5027415;28;20546;-52
2021/06/23 04:55:55;;;;;;;15.10;9.80;;;17.00;99.90;;;;;;5018580;28;20553;-51
2021/06/23 04:58:21;;;;;;;10.20;9.07;;;17.00;99.90;;;;;;4997794;28;20545;-52
2021/06/23 05:00:47;;;;;;;14.50;9.67;;;17.00;99.90;;;;;;5013888;28;20446;-58
2021/06/23 05:03:13;;;;;;;11.20;9.87;;;17.00;99.90;;;;;;5023221;28;20506;-62
2021/06/23 05:05:39;;;;;;;9.70;8.60;;;17.10;99.90;;;;;;5016949;28;20458;-62
2021/06/23 05:08:06;;;;;;;15.00;9.63;;;17.10;99.90;;;;;;5022869;28;20191;-61
2021/06/23 05:10:32;;;;;;;12.00;9.53;;;17.10;99.90;;;;;;5014730;28;20223;-57
2021/06/23 05:12:58;;;;;;;17.03;8.93;;;17.10;99.90;;;;;;5012107;28;20803;-62
2021/06/23 05:15:24;;;;;;;12.97;9.07;;;17.10;99.90;;;;;;5020810;28;20466;-61
2021/06/23 05:17:51;;;;;;;11.83;9.30;;;17.20;99.90;;;;;;5020175;28;20430;-64
2021/06/23 05:20:17;;;;;;;10.10;8.30;;;17.20;99.90;;;;;;5018979;28;21101;-54
2021/06/23 05:22:46;;;;;;;8.13;7.33;;;17.20;99.90;;;;;;5023773;28;20432;-60
2021/06/23 05:25:14;;;;;;;8.07;6.20;;;17.30;99.90;;;;;;5021398;28;20283;-61
2021/06/23 05:27:39;;;;;;;9.00;6.93;;;17.30;99.90;;;;;;5019876;28;20509;-62
2021/06/23 05:30:06;;;;;;;7.73;6.17;;;17.40;99.90;;;;;;5021509;28;20989;-60
2021/06/23 05:32:32;;;;;;;8.47;6.00;;;17.40;99.90;;;;;;5020377;28;20203;-60
2021/06/23 05:34:57;;;;;;;7.53;5.50;;;17.40;99.90;;;;;;5020270;28;20471;-63
2021/06/23 05:37:23;;;;;;;10.23;7.20;;;17.50;99.90;;;;;;5018578;28;20183;-59
2021/06/23 05:39:49;;;;;;;9.67;6.20;;;17.50;99.90;;;;;;5019502;28;20175;-64
2021/06/23 05:42:14;;;;;;;7.43;6.20;;;17.60;99.90;;;;;;5019135;28;20180;-62
2021/06/23 05:44:40;;;;;;;7.20;5.50;;;17.60;99.90;;;;;;5004356;28;20214;-65
2021/06/23 05:47:06;;;;;;;9.90;5.80;;;17.70;99.90;;;;;;5020291;28;20219;-58
2021/06/23 05:49:31;;;;;;;7.43;5.80;;;17.80;99.90;;;;;;5004224;28;20647;-60
2021/06/23 05:51:57;;;;;;;5.27;3.90;;;17.90;99.90;;;;;;5018881;28;20176;-62
2021/06/23 05:54:22;;;;;;;5.10;4.40;;;17.90;99.90;;;;;;5001434;28;20251;-62
2021/06/23 05:56:48;;;;;;;5.80;5.20;;;18.00;99.90;;;;;;4998423;28;20302;-62
2021/06/23 05:59:14;;;;;;;6.87;5.40;;;18.00;99.90;;;;;;5015132;28;20170;-57
2021/06/23 06:01:39;;;;;;;7.17;5.80;;;18.10;99.90;;;;;;5014176;28;20178;-59
2021/06/23 06:04:05;;;;;;;8.40;5.73;;;18.20;99.90;;;;;;5017674;28;21101;-64
2021/06/23 06:06:31;;;;;;;8.40;4.97;;;18.30;99.90;;;;;;5013915;28;21965;-59
2021/06/23 06:08:56;;;;;;;5.97;5.10;;;18.40;99.90;;;;;;5015217;28;20262;-60
2021/06/23 06:11:22;;;;;;;6.33;4.87;;;18.50;99.90;;;;;;5017452;28;20222;-58
2021/06/23 06:13:48;;;;;;;6.10;4.60;;;18.60;99.90;;;;;;4999506;28;20680;-63
2021/06/23 06:16:16;;;;;;;7.37;5.03;;;18.60;99.90;;;;;;5014389;28;21178;-60
2021/06/23 06:18:44;;;;;;;7.23;4.30;;;18.60;99.90;;;;;;5016962;28;20229;-62
2021/06/23 06:21:10;;;;;;;4.57;3.57;;;18.70;99.90;;;;;;5012347;28;20421;-61
2021/06/23 06:23:37;;;;;;;6.63;4.50;;;18.70;99.90;;;;;;5019211;28;20435;-61
2021/06/23 06:26:03;;;;;;;16.73;4.90;;;18.70;99.90;;;;;;5022522;28;20467;-59
2021/06/23 06:28:28;;;;;;;8.03;4.50;;;18.70;99.90;;;;;;5015464;28;20445;-61
2021/06/23 06:30:54;;;;;;;3.87;3.37;;;18.70;99.90;;;;;;5001173;28;20187;-61
2021/06/23 06:33:20;;;;;;;5.70;3.23;;;18.80;99.90;;;;;;5017589;28;20898;-60
2021/06/23 06:35:45;;;;;;;4.47;3.07;;;18.80;99.90;;;;;;5013772;28;20219;-59
2021/06/23 06:38:12;;;;;;;3.40;3.10;;;18.90;99.90;;;;;;4998366;28;20319;-61
2021/06/23 06:40:38;;;;;;;2.40;2.20;;;18.90;99.90;;;;;;5005675;28;20167;-60
2021/06/23 06:43:04;;;;;;;2.73;2.53;;;19.00;99.90;;;;;;5023212;28;20435;-60
2021/06/23 06:45:30;;;;;;;3.27;2.20;;;19.00;99.90;;;;;;5022207;28;20605;-60
2021/06/23 06:47:56;;;;;;;4.83;3.00;;;19.10;99.90;;;;;;5008986;28;20426;-58
2021/06/23 06:50:21;;;;;;;3.40;2.73;;;19.10;99.90;;;;;;5017934;28;20171;-60
2021/06/23 06:52:47;;;;;;;2.57;2.40;;;19.30;99.90;;;;;;5018982;28;20164;-59
2021/06/23 06:55:20;;;;;;;3.50;2.20;;;19.40;99.90;;;;;;5022833;28;20203;-61
2021/06/23 06:57:51;;;;;;;2.77;2.57;;;19.50;99.90;;;;;;5011322;28;20263;-58
2021/06/23 07:00:17;;;;;;;7.87;2.00;;;19.60;99.90;;;;;;5025699;28;20422;-58
2021/06/23 07:02:43;;;;;;;3.47;2.53;;;19.60;99.90;;;;;;5023984;28;20434;-61
2021/06/23 07:05:09;;;;;;;2.40;2.20;;;19.70;99.90;;;;;;5020858;28;20454;-55
2021/06/23 07:07:35;;;;;;;2.40;2.20;;;19.80;99.90;;;;;;5028024;28;20199;-59
2021/06/23 07:10:00;;;;;;;4.30;2.53;;;19.90;99.90;;;;;;5019989;28;20183;-61
2021/06/23 07:12:26;;;;;;;3.83;2.57;;;20.00;99.90;;;;;;5023380;28;20285;-57
2021/06/23 07:14:52;;;;;;;3.07;2.33;;;20.00;99.90;;;;;;5024929;28;20215;-60
2021/06/23 07:17:17;;;;;;;2.70;2.50;;;20.20;99.90;;;;;;5025734;28;20180;-58
2021/06/23 07:19:43;;;;;;;2.93;2.03;;;20.30;99.90;;;;;;5032601;28;20506;-62
2021/06/23 07:22:08;;;;;;;2.47;2.27;;;20.30;99.90;;;;;;5025008;28;20636;-55
2021/06/23 07:24:34;;;;;;;2.53;2.33;;;20.30;99.90;;;;;;5027054;28;20200;-60
2021/06/23 07:27:00;;;;;;;4.47;3.03;;;20.30;99.90;;;;;;5031349;28;20570;-57
2021/06/23 07:29:27;;;;;;;3.03;2.70;;;20.20;99.90;;;;;;5026177;28;20853;-59
2021/06/23 07:37:07;;;;;;;3.53;2.10;;;19.80;99.90;;;;;;5022698;28;20512;-59
2021/06/23 07:39:34;;;;;;;2.57;2.37;;;19.70;99.90;;;;;;5030785;28;20438;-61
2021/06/23 07:42:00;;;;;;;8.20;2.90;;;19.70;99.90;;;;;;5020263;28;20799;-59
2021/06/23 07:44:33;;;;;;;4.90;2.93;;;19.70;99.90;;;;;;5030187;28;20849;-61
2021/06/23 07:47:01;;;;;;;3.83;2.03;;;19.70;99.90;;;;;;5026118;28;20990;-62
2021/06/23 07:49:30;;;;;;;2.33;2.07;;;19.70;99.90;;;;;;5014415;28;20439;-59
2021/06/23 08:10:47;;;;;;;2.60;1.93;;;20.50;99.90;;;;;;5018376;28;20421;-62
2021/06/23 08:13:14;;;;;;;2.67;1.90;;;20.50;99.90;;;;;;5032495;28;20505;-61
2021/06/23 08:15:42;;;;;;;3.37;1.97;;;20.60;99.90;;;;;;5025096;28;21217;-60
2021/06/23 08:18:09;;;;;;;6.87;1.73;;;20.70;99.50;;;;;;5039375;28;20583;-60
2021/06/23 08:20:35;;;;;;;2.73;1.80;;;20.80;99.40;;;;;;5028893;28;20472;-61
2021/06/23 08:23:02;;;;;;;1.77;1.67;;;20.80;98.30;;;;;;5020268;28;20888;-59
2021/06/23 08:25:27;;;;;;;1.70;1.60;;;20.90;98.40;;;;;;5023984;28;20449;-59
2021/06/23 08:27:53;;;;;;;3.63;2.03;;;20.90;96.30;;;;;;5005861;28;20803;-61
2021/06/23 08:30:21;;;;;;;2.70;2.13;;;21.00;96.70;;;;;;5018303;28;20266;-62
2021/06/23 08:32:47;;;;;;;3.00;2.20;;;21.00;97.80;;;;;;5019691;28;20459;-58
2021/06/23 08:35:13;;;;;;;2.93;2.50;;;21.00;97.00;;;;;;5017142;28;20455;-60
2021/06/23 08:37:40;;;;;;;3.97;2.73;;;20.90;97.60;;;;;;5020975;28;20430;-61
2021/06/23 08:40:09;;;;;;;6.03;2.70;;;20.90;97.40;;;;;;5024314;28;20561;-61
2021/06/23 08:42:35;;;;;;;4.53;2.03;;;20.80;97.50;;;;;;5023647;28;20496;-62
2021/06/23 08:47:47;;;;;;;3.50;2.47;;;21.00;98.10;;;;;;5028344;28;20474;-61
2021/06/23 08:50:19;;;;;;;2.57;2.10;;;21.10;93.90;;;;;;5018911;28;20427;-61
2021/06/23 08:52:45;;;;;;;2.30;2.10;;;21.00;94.20;;;;;;5009641;28;20434;-61
2021/06/23 08:55:12;;;;;;;2.37;2.17;;;21.00;95.70;;;;;;5011309;28;20457;-60
2021/06/23 08:57:38;;;;;;;8.30;3.40;;;21.00;96.90;;;;;;5011902;28;20461;-61
2021/06/23 09:00:07;;;;;;;2.87;2.00;;;21.00;97.10;;;;;;5007864;28;20970;-60
2021/06/23 09:02:34;;;;;;;2.10;2.00;;;21.00;96.50;;;;;;5008739;28;20496;-63
2021/06/23 09:05:01;;;;;;;2.20;1.70;;;21.10;96.40;;;;;;5011709;28;20410;-62
2021/06/23 09:07:55;;;;;;;1.80;1.70;;;21.20;95.60;;;;;;5011463;28;20462;-61
2021/06/23 09:10:23;;;;;;;2.50;1.80;;;21.40;96.00;;;;;;5022387;28;20517;-61
2021/06/23 09:13:01;;;;;;;2.10;1.93;;;21.70;96.30;;;;;;5010233;28;20431;-62
2021/06/23 09:15:43;;;;;;;2.63;1.97;;;22.00;95.60;;;;;;5000102;28;20423;-61
2021/06/23 09:18:20;;;;;;;4.17;1.90;;;22.30;94.50;;;;;;5005023;28;20685;-62
2021/06/23 09:20:49;;;;;;;1.60;1.50;;;22.40;93.40;;;;;;5007811;28;20423;-62
2021/06/23 09:23:15;;;;;;;1.90;1.80;;;22.30;92.70;;;;;;5007535;28;20438;-61
2021/06/23 09:25:45;;;;;;;3.20;2.37;;;22.20;92.50;;;;;;5017905;28;20495;-62
2021/06/23 09:28:17;;;;;;;1.60;1.50;;;22.10;92.60;;;;;;5023591;28;20262;-62
2021/06/23 09:30:46;;;;;;;1.67;1.57;;;22.00;93.90;;;;;;5001158;28;20422;-61
2021/06/23 09:33:11;;;;;;;2.43;1.90;;;22.00;92.10;;;;;;5007182;28;20434;-62
2021/06/23 09:35:39;;;;;;;2.33;1.60;;;21.90;91.00;;;;;;5023749;28;20462;-61
2021/06/23 09:38:05;;;;;;;2.47;1.60;;;21.80;91.90;;;;;;5028981;28;20518;-61
2021/06/23 09:40:40;;;;;;;1.77;1.67;;;21.80;92.70;;;;;;5005547;28;20438;-61
2021/06/23 09:43:07;;;;;;;1.87;1.57;;;21.90;92.00;;;;;;5004941;28;20186;-61
2021/06/23 09:45:32;;;;;;;1.80;1.40;;;21.90;93.60;;;;;;5002952;28;20880;-61
2021/06/23 09:48:05;;;;;;;1.70;1.60;;;21.90;93.60;;;;;;5006716;28;20435;-62
2021/06/23 09:50:32;;;;;;;2.13;1.83;;;21.90;93.50;;;;;;5006285;28;20179;-61
2021/06/23 09:53:03;;;;;;;2.47;1.40;;;21.90;92.60;;;;;;5021514;28;20930;-61
2021/06/23 09:55:37;;;;;;;1.57;1.47;;;21.90;92.80;;;;;;5004997;28;20430;-62
2021/06/23 09:58:17;;;;;;;2.07;1.90;;;21.80;93.60;;;;;;4968292;28;20451;-62
2021/06/23 10:01:04;;;;;;;3.03;1.50;;;22.00;94.20;;;;;;4985032;28;20797;-61
2021/06/23 10:03:51;;;;;;;1.20;1.10;;;22.20;91.70;;;;;;4975905;28;20524;-61
2021/06/23 10:06:22;;;;;;;6.00;1.70;;;22.50;89.10;;;;;;4971395;28;20525;-61
2021/06/23 10:08:48;;;;;;;1.50;1.40;;;22.60;89.60;;;;;;4991189;28;20427;-63
2021/06/23 10:11:26;;;;;;;3.73;1.67;;;22.90;91.10;;;;;;4990109;28;20423;-62
2021/06/23 10:13:52;;;;;;;1.80;1.70;;;23.20;88.70;;;;;;4984951;28;20435;-62
2021/06/23 10:16:19;;;;;;;1.30;1.20;;;23.60;84.00;;;;;;4988689;28;20447;-61
2021/06/23 10:18:45;;;;;;;1.90;1.33;;;23.80;78.10;;;;;;4987481;28;20439;-62
2021/06/23 10:21:11;;;;;;;2.30;1.70;;;23.70;77.30;;;;;;4992918;28;20466;-62
2021/06/23 10:23:37;;;;;;;1.90;1.70;;;23.50;78.60;;;;;;4988310;28;20466;-61
2021/06/23 10:26:04;;;;;;;2.40;1.60;;;23.20;81.50;;;;;;4982821;28;21357;-62
2021/06/23 10:28:31;;;;;;;2.07;1.70;;;22.90;85.40;;;;;;4984216;28;20471;-61
2021/06/23 10:30:58;;;;;;;2.93;1.40;;;22.70;86.90;;;;;;4987560;28;20522;-61
2021/06/23 10:33:24;;;;;;;2.70;1.77;;;22.50;87.40;;;;;;4977157;28;21090;-62
2021/06/23 10:35:49;;;;;;;1.73;1.63;;;22.40;90.10;;;;;;4987956;28;20546;-62
2021/06/23 10:38:19;;;;;;;1.30;1.20;;;22.30;90.00;;;;;;4995130;28;20203;-62
2021/06/23 10:40:45;;;;;;;1.70;1.60;;;22.20;90.90;;;;;;4978076;28;20549;-61
2021/06/23 10:43:15;;;;;;;2.00;1.80;;;22.20;91.60;;;;;;4990168;28;20432;-62
2021/06/23 10:45:42;;;;;;;6.00;2.00;;;22.30;93.00;;;;;;4987155;28;21413;-61
2021/06/23 10:48:10;;;;;;;4.40;2.10;;;22.30;93.00;;;;;;5006134;28;20435;-62
2021/06/23 10:50:36;;;;;;;2.83;1.60;;;22.30;93.30;;;;;;4999038;28;20459;-61
2021/06/23 10:53:19;;;;;;;1.93;1.73;;;22.30;92.30;;;;;;4994271;28;20994;-62
2021/06/23 10:55:45;;;;;;;2.00;1.80;;;22.20;92.20;;;;;;4991959;28;20444;-61
2021/06/23 10:58:11;;;;;;;6.27;1.77;;;22.20;92.50;;;;;;4983523;28;20531;-61
2021/06/23 11:00:40;;;;;;;2.90;1.70;;;22.20;92.70;;;;;;4982748;28;20803;-62
2021/06/23 11:03:07;;;;;;;3.03;1.60;;;22.20;92.90;;;;;;4998883;28;20509;-62
2021/06/23 11:05:38;;;;;;;2.33;1.60;;;22.10;93.90;;;;;;4989692;28;20511;-61
2021/06/23 11:08:34;;;;;;;3.20;1.80;;;22.10;94.00;;;;;;4976733;28;20439;-62
2021/06/23 11:11:05;;;;;;;3.80;1.50;;;22.30;93.70;;;;;;4983213;28;20439;-61
2021/06/23 11:13:41;;;;;;;3.60;1.87;;;22.50;91.70;;;;;;4965014;28;20493;-61
2021/06/23 11:16:27;;;;;;;2.40;1.67;;;22.60;89.20;;;;;;4979103;28;20443;-61
2021/06/23 11:19:08;;;;;;;2.07;1.20;;;22.60;89.50;;;;;;4977279;28;20889;-61
2021/06/23 11:21:33;;;;;;;1.87;1.60;;;23.00;90.50;;;;;;4981017;28;20458;-61
2021/06/23 11:24:02;;;;;;;1.63;1.53;;;23.50;87.40;;;;;;4987312;28;20431;-61
2021/06/23 11:26:27;;;;;;;1.37;1.27;;;23.90;82.70;;;;;;4997144;28;20206;-62
2021/06/23 11:29:13;;;;;;;4.10;1.57;;;24.30;82.10;;;;;;4984866;28;20820;-63
2021/06/23 11:31:42;;;;;;;1.37;1.20;;;24.70;84.80;;;;;;4993083;28;21509;-61
2021/06/23 11:34:09;;;;;;;4.50;1.23;;;24.60;75.50;;;;;;4986559;28;20427;-62
2021/06/23 11:36:35;;;;;;;2.30;1.23;;;24.60;75.00;;;;;;4989129;28;20455;-62
2021/06/23 11:39:02;;;;;;;1.40;1.30;;;24.50;73.80;;;;;;4995598;28;20958;-60
2021/06/23 11:41:28;;;;;;;1.77;1.67;;;24.50;76.50;;;;;;4995857;28;20176;-59
2021/06/23 11:43:54;;;;;;;3.00;1.40;;;24.50;74.10;;;;;;4977261;28;20442;-59
2021/06/23 11:46:20;;;;;;;1.37;1.27;;;24.60;73.60;;;;;;4995785;28;20411;-59
2021/06/23 11:48:46;;;;;;;1.83;1.50;;;24.90;74.90;;;;;;4995806;28;20450;-59
2021/06/23 11:51:12;;;;;;;1.40;1.30;;;25.30;76.00;;;;;;4994483;28;22713;-59
2021/06/23 11:53:39;;;;;;;1.30;1.20;;;25.70;75.80;;;;;;4995565;28;20172;-58
2021/06/23 11:56:06;;;;;;;1.40;1.30;;;26.00;72.00;;;;;;4993451;28;20467;-60
2021/06/23 11:58:32;;;;;;;1.37;1.27;;;26.30;65.90;;;;;;4995469;28;21316;-58
2021/06/23 12:00:58;;;;;;;1.53;1.27;;;26.50;64.10;;;;;;4997485;28;20557;-59
2021/06/23 12:03:24;;;;;;;1.63;1.00;;;26.60;61.80;;;;;;4974098;28;20279;-59
2021/06/23 12:05:50;;;;;;;1.17;1.07;;;26.30;57.60;;;;;;4994627;28;20204;-59
2021/06/23 12:08:16;;;;;;;1.00;1.00;;;26.00;59.40;;;;;;4994699;28;20642;-58
2021/06/23 12:10:43;;;;;;;1.60;0.80;;;25.90;61.10;;;;;;4997704;28;20251;-60
2021/06/23 12:13:10;;;;;;;1.10;1.00;;;26.10;58.80;;;;;;4976564;28;20432;-60
2021/06/23 12:15:37;;;;;;;1.00;0.87;;;26.40;57.50;;;;;;4997148;28;20451;-60
2021/06/23 12:18:05;;;;;;;1.53;0.80;;;26.70;56.00;;;;;;4998390;28;20516;-60
2021/06/23 12:20:33;;;;;;;0.90;0.90;;;26.90;55.00;;;;;;4993785;28;20848;-59
2021/06/23 12:23:03;;;;;;;1.83;0.90;;;27.10;54.30;;;;;;4976806;28;20430;-59
2021/06/23 12:25:33;;;;;;;1.63;0.90;;;27.20;53.70;;;;;;4996162;28;20483;-60
2021/06/23 12:27:59;;;;;;;0.90;0.80;;;27.50;53.60;;;;;;4995458;28;20917;-59
2021/06/23 12:30:27;;;;;;;0.80;0.80;;;27.70;53.30;;;;;;4991640;28;20561;-60
2021/06/23 12:32:55;;;;;;;1.40;0.97;;;27.90;51.90;;;;;;4990994;28;20491;-60
2021/06/23 12:35:20;;;;;;;1.33;1.10;;;27.90;49.80;;;;;;4991613;28;20495;-60
2021/06/23 12:37:46;;;;;;;1.53;0.77;;;28.00;48.80;;;;;;4996086;28;21415;-60
2021/06/23 12:40:12;;;;;;;0.80;0.70;;;28.10;51.10;;;;;;4999137;28;20184;-60
2021/06/23 12:42:38;;;;;;;1.70;0.73;;;28.10;50.20;;;;;;5000591;28;20199;-59
2021/06/23 12:45:04;;;;;;;2.20;1.13;;;27.80;50.20;;;;;;5004058;28;20687;-59
2021/06/23 12:47:30;;;;;;;4.73;1.00;;;27.60;50.60;;;;;;5002146;28;20219;-61
2021/06/23 12:49:55;;;;;;;1.10;1.00;;;27.70;52.30;;;;;;4999877;28;20522;-61
2021/06/23 12:52:21;;;;;;;1.27;1.03;;;27.90;53.00;;;;;;4997308;28;20263;-60
2021/06/23 12:54:47;;;;;;;1.20;1.10;;;28.10;51.90;;;;;;5002887;28;20254;-60
2021/06/23 12:57:13;;;;;;;5.80;1.23;;;28.10;51.80;;;;;;4996860;28;20273;-60
2021/06/23 12:59:39;;;;;;;1.10;1.10;;;27.90;52.00;;;;;;4998410;28;20183;-59
2021/06/23 13:02:05;;;;;;;1.43;1.00;;;27.60;51.80;;;;;;5000611;28;20438;-59
2021/06/23 13:04:30;;;;;;;1.63;1.00;;;27.40;53.20;;;;;;4994233;28;20231;-59
2021/06/23 13:06:56;;;;;;;1.70;1.27;;;27.40;52.20;;;;;;4993477;28;20312;-61
2021/06/23 13:09:22;;;;;;;4.80;1.03;;;27.60;52.30;;;;;;4993534;28;20247;-60
2021/06/23 13:11:48;;;;;;;2.10;1.17;;;27.60;51.70;;;;;;4994549;28;20207;-58